sensor_id;sensor_type;location;lat;lon;timestamp;pressure;altitude;pressure_sealevel;temperature;humidity
41078;BME280;26823;42.662;23.352;2022-10-31T00:01:31;95243.72;;;14.52;52.25
41078;BME280;26823;42.662;23.352;2022-10-31T00:03:57;95244.69;;;14.62;51.11
41078;BME280;26823;42.662;23.352;2022-10-31T00:06:23;95208.41;;;14.47;50.82
41078;BME280;26823;42.662;23.352;2022-10-31T00:08:54;95242.72;;;14.67;51.34
41078;BME280;26823;42.662;23.352;2022-10-31T00:11:20;95246.53;;;14.66;51.53
41078;BME280;26823;42.662;23.352;2022-10-31T00:13:46;95242.19;;;14.65;51.80
41078;BME280;26823;42.662;23.352;2022-10-31T00:16:30;95234.56;;;14.67;51.68
41078;BME280;26823;42.662;23.352;2022-10-31T00:18:59;95227.00;;;14.64;52.22
41078;BME280;26823;42.662;23.352;2022-10-31T00:21:26;95237.38;;;14.57;52.53
41078;BME280;26823;42.662;23.352;2022-10-31T00:23:52;95238.50;;;14.56;52.31
41078;BME280;26823;42.662;23.352;2022-10-31T00:26:18;95243.38;;;14.59;52.71
41078;BME280;26823;42.662;23.352;2022-10-31T00:28:44;95243.13;;;14.56;52.95
41078;BME280;26823;42.662;23.352;2022-10-31T00:31:11;95238.41;;;14.61;52.19
41078;BME280;26823;42.662;23.352;2022-10-31T00:33:38;95237.09;;;14.59;51.96
41078;BME280;26823;42.662;23.352;2022-10-31T00:36:05;95236.22;;;14.63;52.11
41078;BME280;26823;42.662;23.352;2022-10-31T00:38:31;95243.38;;;14.59;53.08
41078;BME280;26823;42.662;23.352;2022-10-31T00:40:56;95248.38;;;14.71;52.17
41078;BME280;26823;42.662;23.352;2022-10-31T00:43:22;95236.97;;;14.69;52.15
41078;BME280;26823;42.662;23.352;2022-10-31T00:45:48;95221.59;;;14.59;52.09
41078;BME280;26823;42.662;23.352;2022-10-31T00:48:13;95227.22;;;14.63;52.19
41078;BME280;26823;42.662;23.352;2022-10-31T00:50:39;95238.94;;;14.63;52.37
41078;BME280;26823;42.662;23.352;2022-10-31T00:53:05;95237.47;;;14.52;52.64
41078;BME280;26823;42.662;23.352;2022-10-31T00:55:30;95224.50;;;14.44;52.78
41078;BME280;26823;42.662;23.352;2022-10-31T00:57:56;95235.63;;;14.47;52.54
41078;BME280;26823;42.662;23.352;2022-10-31T01:00:21;95243.22;;;14.50;52.48
41078;BME280;26823;42.662;23.352;2022-10-31T01:02:47;95242.16;;;14.46;53.14
41078;BME280;26823;42.662;23.352;2022-10-31T01:05:13;95224.34;;;14.35;53.12
41078;BME280;26823;42.662;23.352;2022-10-31T01:07:39;95237.28;;;14.24;53.51
41078;BME280;26823;42.662;23.352;2022-10-31T01:10:06;95247.13;;;14.20;53.69
41078;BME280;26823;42.662;23.352;2022-10-31T01:12:43;95241.97;;;14.18;54.18
41078;BME280;26823;42.662;23.352;2022-10-31T01:15:11;95241.69;;;13.96;54.84
41078;BME280;26823;42.662;23.352;2022-10-31T01:17:37;95239.56;;;13.93;54.87
41078;BME280;26823;42.662;23.352;2022-10-31T01:20:04;95249.28;;;13.99;54.54
41078;BME280;26823;42.662;23.352;2022-10-31T01:22:30;95231.56;;;14.01;54.57
41078;BME280;26823;42.662;23.352;2022-10-31T01:24:55;95243.59;;;13.95;55.04
41078;BME280;26823;42.662;23.352;2022-10-31T01:27:21;95249.03;;;13.95;54.89
41078;BME280;26823;42.662;23.352;2022-10-31T01:29:46;95251.41;;;13.78;55.79
41078;BME280;26823;42.662;23.352;2022-10-31T01:32:12;95255.06;;;13.63;56.46
41078;BME280;26823;42.662;23.352;2022-10-31T01:34:37;95253.66;;;13.36;57.11
41078;BME280;26823;42.662;23.352;2022-10-31T01:37:02;95244.38;;;12.78;58.84
41078;BME280;26823;42.662;23.352;2022-10-31T01:39:28;95252.38;;;12.49;59.56
41078;BME280;26823;42.662;23.352;2022-10-31T01:41:54;95264.19;;;12.29;61.04
41078;BME280;26823;42.662;23.352;2022-10-31T01:46:57;95270.44;;;12.19;62.19
41078;BME280;26823;42.662;23.352;2022-10-31T01:52:02;95261.84;;;11.96;62.52
41078;BME280;26823;42.662;23.352;2022-10-31T01:54:33;95265.66;;;11.80;63.35
41078;BME280;26823;42.662;23.352;2022-10-31T01:57:02;95267.00;;;11.87;63.45
41078;BME280;26823;42.662;23.352;2022-10-31T01:59:32;95265.03;;;12.14;62.62
41078;BME280;26823;42.662;23.352;2022-10-31T02:02:00;95262.00;;;12.26;62.11
41078;BME280;26823;42.662;23.352;2022-10-31T02:04:26;95237.78;;;12.39;61.15
41078;BME280;26823;42.662;23.352;2022-10-31T02:06:58;95250.78;;;12.48;61.67
41078;BME280;26823;42.662;23.352;2022-10-31T02:09:26;95249.13;;;12.52;61.50
41078;BME280;26823;42.662;23.352;2022-10-31T02:11:54;95247.91;;;12.29;62.24
41078;BME280;26823;42.662;23.352;2022-10-31T02:14:24;95253.41;;;12.03;62.84
41078;BME280;26823;42.662;23.352;2022-10-31T02:16:50;95251.00;;;11.96;63.41
41078;BME280;26823;42.662;23.352;2022-10-31T02:22:19;95256.38;;;12.06;63.54
41078;BME280;26823;42.662;23.352;2022-10-31T02:28:03;95269.63;;;12.13;63.34
41078;BME280;26823;42.662;23.352;2022-10-31T02:33:22;95274.25;;;12.13;63.46
41078;BME280;26823;42.662;23.352;2022-10-31T02:36:14;95270.72;;;12.22;63.29
41078;BME280;26823;42.662;23.352;2022-10-31T02:44:38;95281.16;;;12.50;62.66
41078;BME280;26823;42.662;23.352;2022-10-31T02:47:14;95288.53;;;12.39;62.86
41078;BME280;26823;42.662;23.352;2022-10-31T02:49:51;95288.47;;;12.49;62.49
41078;BME280;26823;42.662;23.352;2022-10-31T02:52:25;95283.91;;;12.39;62.78
41078;BME280;26823;42.662;23.352;2022-10-31T02:54:51;95289.66;;;12.33;63.13
41078;BME280;26823;42.662;23.352;2022-10-31T02:57:22;95276.38;;;12.26;62.89
41078;BME280;26823;42.662;23.352;2022-10-31T02:59:56;95293.13;;;12.38;62.51
41078;BME280;26823;42.662;23.352;2022-10-31T03:05:40;95276.56;;;12.40;63.62
41078;BME280;26823;42.662;23.352;2022-10-31T03:08:22;95295.03;;;12.38;63.24
41078;BME280;26823;42.662;23.352;2022-10-31T03:10:58;95298.03;;;12.36;63.45
41078;BME280;26823;42.662;23.352;2022-10-31T03:13:36;95294.16;;;12.53;63.04
41078;BME280;26823;42.662;23.352;2022-10-31T03:16:17;95287.88;;;12.57;62.48
41078;BME280;26823;42.662;23.352;2022-10-31T03:18:50;95275.91;;;12.64;62.32
41078;BME280;26823;42.662;23.352;2022-10-31T03:21:23;95277.50;;;12.70;62.11
41078;BME280;26823;42.662;23.352;2022-10-31T03:23:53;95289.16;;;12.76;62.12
41078;BME280;26823;42.662;23.352;2022-10-31T03:26:26;95274.28;;;12.63;61.91
41078;BME280;26823;42.662;23.352;2022-10-31T03:28:55;95286.22;;;12.67;62.42
41078;BME280;26823;42.662;23.352;2022-10-31T03:31:27;95283.56;;;12.51;62.87
41078;BME280;26823;42.662;23.352;2022-10-31T03:33:54;95296.56;;;12.60;62.75
41078;BME280;26823;42.662;23.352;2022-10-31T03:36:22;95291.00;;;12.35;63.13
41078;BME280;26823;42.662;23.352;2022-10-31T03:38:48;95300.53;;;12.22;63.74
41078;BME280;26823;42.662;23.352;2022-10-31T03:41:21;95301.63;;;12.16;64.23
41078;BME280;26823;42.662;23.352;2022-10-31T03:44:06;95301.41;;;12.07;64.75
41078;BME280;26823;42.662;23.352;2022-10-31T03:46:41;95303.84;;;11.94;65.24
41078;BME280;26823;42.662;23.352;2022-10-31T03:49:08;95303.31;;;11.86;65.04
41078;BME280;26823;42.662;23.352;2022-10-31T03:51:42;95310.63;;;12.01;65.02
41078;BME280;26823;42.662;23.352;2022-10-31T03:54:28;95309.00;;;11.90;65.29
41078;BME280;26823;42.662;23.352;2022-10-31T03:57:14;95317.69;;;11.87;65.19
41078;BME280;26823;42.662;23.352;2022-10-31T03:59:49;95314.97;;;11.87;65.14
41078;BME280;26823;42.662;23.352;2022-10-31T04:02:18;95318.53;;;11.67;66.12
41078;BME280;26823;42.662;23.352;2022-10-31T04:04:46;95322.59;;;11.64;66.52
41078;BME280;26823;42.662;23.352;2022-10-31T04:07:13;95324.19;;;11.86;65.53
41078;BME280;26823;42.662;23.352;2022-10-31T04:09:42;95324.72;;;11.98;65.01
41078;BME280;26823;42.662;23.352;2022-10-31T04:12:12;95331.72;;;12.20;64.72
41078;BME280;26823;42.662;23.352;2022-10-31T04:14:41;95324.19;;;11.96;65.79
41078;BME280;26823;42.662;23.352;2022-10-31T04:17:10;95329.59;;;12.01;65.78
41078;BME280;26823;42.662;23.352;2022-10-31T04:19:37;95335.81;;;11.91;66.15
41078;BME280;26823;42.662;23.352;2022-10-31T04:22:02;95333.41;;;12.00;65.68
41078;BME280;26823;42.662;23.352;2022-10-31T04:24:28;95329.03;;;12.20;65.32
41078;BME280;26823;42.662;23.352;2022-10-31T04:26:53;95321.16;;;12.13;65.19
41078;BME280;26823;42.662;23.352;2022-10-31T04:29:19;95320.13;;;11.99;66.59
41078;BME280;26823;42.662;23.352;2022-10-31T04:31:44;95332.31;;;12.01;66.64
41078;BME280;26823;42.662;23.352;2022-10-31T04:34:09;95336.09;;;12.05;66.72
41078;BME280;26823;42.662;23.352;2022-10-31T04:36:35;95331.50;;;12.01;66.82
41078;BME280;26823;42.662;23.352;2022-10-31T04:39:00;95322.28;;;11.97;66.67
41078;BME280;26823;42.662;23.352;2022-10-31T04:41:26;95325.81;;;11.97;66.31
41078;BME280;26823;42.662;23.352;2022-10-31T04:43:58;95330.41;;;11.91;66.50
41078;BME280;26823;42.662;23.352;2022-10-31T04:46:23;95326.38;;;11.79;66.69
41078;BME280;26823;42.662;23.352;2022-10-31T04:48:49;95307.41;;;11.79;66.79
41078;BME280;26823;42.662;23.352;2022-10-31T04:51:14;95347.78;;;12.01;66.43
41078;BME280;26823;42.662;23.352;2022-10-31T04:53:40;95336.91;;;11.85;67.29
41078;BME280;26823;42.662;23.352;2022-10-31T04:56:05;95345.88;;;11.81;68.00
41078;BME280;26823;42.662;23.352;2022-10-31T04:58:31;95342.66;;;11.58;68.41
41078;BME280;26823;42.662;23.352;2022-10-31T05:00:56;95346.16;;;11.43;68.82
41078;BME280;26823;42.662;23.352;2022-10-31T05:03:22;95365.41;;;11.52;69.00
41078;BME280;26823;42.662;23.352;2022-10-31T05:05:48;95356.44;;;11.51;68.79
41078;BME280;26823;42.662;23.352;2022-10-31T05:08:14;95348.06;;;11.68;68.64
41078;BME280;26823;42.662;23.352;2022-10-31T05:10:39;95355.88;;;11.85;68.35
41078;BME280;26823;42.662;23.352;2022-10-31T05:13:05;95362.41;;;11.95;68.12
41078;BME280;26823;42.662;23.352;2022-10-31T05:15:31;95364.03;;;12.01;67.64
41078;BME280;26823;42.662;23.352;2022-10-31T05:17:56;95354.81;;;11.97;67.55
41078;BME280;26823;42.662;23.352;2022-10-31T05:20:25;95358.59;;;11.90;67.97
41078;BME280;26823;42.662;23.352;2022-10-31T05:22:53;95377.56;;;11.90;68.39
41078;BME280;26823;42.662;23.352;2022-10-31T05:25:20;95386.25;;;11.93;68.51
41078;BME280;26823;42.662;23.352;2022-10-31T05:27:47;95363.50;;;11.63;68.82
41078;BME280;26823;42.662;23.352;2022-10-31T05:30:19;95380.56;;;11.84;68.97
41078;BME280;26823;42.662;23.352;2022-10-31T05:32:46;95388.69;;;11.73;69.53
41078;BME280;26823;42.662;23.352;2022-10-31T05:35:38;95384.34;;;11.72;69.58
41078;BME280;26823;42.662;23.352;2022-10-31T05:38:03;95390.59;;;11.88;68.71
41078;BME280;26823;42.662;23.352;2022-10-31T05:40:28;95392.75;;;12.02;68.50
41078;BME280;26823;42.662;23.352;2022-10-31T05:42:55;95381.34;;;11.84;69.10
41078;BME280;26823;42.662;23.352;2022-10-31T05:45:21;95392.22;;;11.95;68.82
41078;BME280;26823;42.662;23.352;2022-10-31T05:50:16;95386.81;;;12.00;68.41
41078;BME280;26823;42.662;23.352;2022-10-31T05:52:41;95397.63;;;11.84;69.72
41078;BME280;26823;42.662;23.352;2022-10-31T05:55:07;95388.69;;;11.68;69.55
41078;BME280;26823;42.662;23.352;2022-10-31T05:57:32;95397.91;;;11.62;70.50
41078;BME280;26823;42.662;23.352;2022-10-31T05:59:59;95398.19;;;11.71;70.77
41078;BME280;26823;42.662;23.352;2022-10-31T06:02:24;95406.03;;;11.98;69.70
41078;BME280;26823;42.662;23.352;2022-10-31T06:04:50;95402.50;;;12.13;69.04
41078;BME280;26823;42.662;23.352;2022-10-31T06:07:15;95409.53;;;12.30;68.34
41078;BME280;26823;42.662;23.352;2022-10-31T06:09:41;95414.09;;;12.45;67.88
41078;BME280;26823;42.662;23.352;2022-10-31T06:12:06;95417.09;;;12.43;67.66
41078;BME280;26823;42.662;23.352;2022-10-31T06:14:31;95416.50;;;12.51;67.13
41078;BME280;26823;42.662;23.352;2022-10-31T06:16:57;95410.34;;;12.35;68.03
41078;BME280;26823;42.662;23.352;2022-10-31T06:19:22;95419.53;;;12.45;68.27
41078;BME280;26823;42.662;23.352;2022-10-31T06:21:48;95422.53;;;12.38;68.22
41078;BME280;26823;42.662;23.352;2022-10-31T06:24:13;95424.97;;;12.34;69.00
41078;BME280;26823;42.662;23.352;2022-10-31T06:26:40;95434.19;;;12.33;68.62
41078;BME280;26823;42.662;23.352;2022-10-31T06:29:05;95433.41;;;12.07;69.50
41078;BME280;26823;42.662;23.352;2022-10-31T06:31:31;95426.38;;;12.16;69.08
41078;BME280;26823;42.662;23.352;2022-10-31T06:33:56;95453.94;;;12.60;68.23
41078;BME280;26823;42.662;23.352;2022-10-31T06:36:22;95449.28;;;12.81;67.64
41078;BME280;26823;42.662;23.352;2022-10-31T06:38:47;95452.25;;;12.89;66.51
41078;BME280;26823;42.662;23.352;2022-10-31T06:41:12;95441.38;;;12.89;66.22
41078;BME280;26823;42.662;23.352;2022-10-31T06:43:38;95443.16;;;13.10;66.14
41078;BME280;26823;42.662;23.352;2022-10-31T06:46:04;95447.94;;;13.33;65.12
41078;BME280;26823;42.662;23.352;2022-10-31T06:48:31;95443.38;;;13.24;65.17
41078;BME280;26823;42.662;23.352;2022-10-31T06:51:00;95436.34;;;13.17;65.67
41078;BME280;26823;42.662;23.352;2022-10-31T06:53:28;95445.53;;;13.72;64.79
41078;BME280;26823;42.662;23.352;2022-10-31T06:55:55;95448.97;;;13.88;64.18
41078;BME280;26823;42.662;23.352;2022-10-31T06:58:21;95446.31;;;14.12;63.01
41078;BME280;26823;42.662;23.352;2022-10-31T07:00:53;95437.13;;;14.08;62.68
41078;BME280;26823;42.662;23.352;2022-10-31T07:03:18;95449.03;;;14.12;62.56
41078;BME280;26823;42.662;23.352;2022-10-31T07:05:45;95436.91;;;14.28;61.01
41078;BME280;26823;42.662;23.352;2022-10-31T07:08:12;95445.53;;;14.11;62.39
41078;BME280;26823;42.662;23.352;2022-10-31T07:10:39;95452.56;;;14.12;63.02
41078;BME280;26823;42.662;23.352;2022-10-31T07:13:08;95454.78;;;14.40;62.07
41078;BME280;26823;42.662;23.352;2022-10-31T07:15:37;95446.47;;;14.79;59.58
41078;BME280;26823;42.662;23.352;2022-10-31T07:18:04;95450.94;;;14.94;59.04
41078;BME280;26823;42.662;23.352;2022-10-31T07:20:31;95432.38;;;15.21;59.04
41078;BME280;26823;42.662;23.352;2022-10-31T07:22:56;95441.59;;;15.63;58.21
41078;BME280;26823;42.662;23.352;2022-10-31T07:25:22;95427.22;;;15.76;57.85
41078;BME280;26823;42.662;23.352;2022-10-31T07:27:48;95436.53;;;16.41;55.54
41078;BME280;26823;42.662;23.352;2022-10-31T07:30:14;95428.28;;;16.88;54.40
41078;BME280;26823;42.662;23.352;2022-10-31T07:32:51;95417.38;;;17.53;51.60
41078;BME280;26823;42.662;23.352;2022-10-31T07:35:17;95433.53;;;17.77;49.71
41078;BME280;26823;42.662;23.352;2022-10-31T07:37:43;95433.09;;;19.32;46.70
41078;BME280;26823;42.662;23.352;2022-10-31T07:40:09;95432.97;;;20.34;43.46
41078;BME280;26823;42.662;23.352;2022-10-31T07:42:48;95441.34;;;21.02;41.07
41078;BME280;26823;42.662;23.352;2022-10-31T07:45:16;95431.16;;;21.63;39.42
41078;BME280;26823;42.662;23.352;2022-10-31T07:47:44;95418.75;;;21.78;39.09
41078;BME280;26823;42.662;23.352;2022-10-31T07:50:20;95427.75;;;22.42;37.75
41078;BME280;26823;42.662;23.352;2022-10-31T07:52:46;95432.22;;;21.20;39.75
41078;BME280;26823;42.662;23.352;2022-10-31T07:55:12;95433.56;;;21.64;39.36
41078;BME280;26823;42.662;23.352;2022-10-31T07:57:38;95425.53;;;22.56;38.35
41078;BME280;26823;42.662;23.352;2022-10-31T08:00:08;95430.28;;;22.93;36.97
41078;BME280;26823;42.662;23.352;2022-10-31T08:02:34;95437.22;;;22.53;37.75
41078;BME280;26823;42.662;23.352;2022-10-31T08:05:00;95438.16;;;23.16;36.60
41078;BME280;26823;42.662;23.352;2022-10-31T08:07:28;95440.41;;;23.01;36.41
41078;BME280;26823;42.662;23.352;2022-10-31T08:09:54;95449.22;;;22.82;37.22
41078;BME280;26823;42.662;23.352;2022-10-31T08:12:20;95439.22;;;22.77;37.63
41078;BME280;26823;42.662;23.352;2022-10-31T08:14:45;95439.94;;;22.87;36.53
41078;BME280;26823;42.662;23.352;2022-10-31T08:17:11;95431.47;;;22.25;37.80
41078;BME280;26823;42.662;23.352;2022-10-31T08:19:37;95428.66;;;22.79;37.20
41078;BME280;26823;42.662;23.352;2022-10-31T08:22:02;95424.50;;;22.73;36.94
41078;BME280;26823;42.662;23.352;2022-10-31T08:24:28;95435.09;;;22.96;36.77
41078;BME280;26823;42.662;23.352;2022-10-31T08:26:53;95438.00;;;23.00;37.01
41078;BME280;26823;42.662;23.352;2022-10-31T08:29:19;95424.19;;;23.74;34.83
41078;BME280;26823;42.662;23.352;2022-10-31T08:31:44;95442.56;;;23.82;35.17
41078;BME280;26823;42.662;23.352;2022-10-31T08:34:09;95426.06;;;24.99;33.16
41078;BME280;26823;42.662;23.352;2022-10-31T08:36:35;95437.63;;;26.24;31.46
41078;BME280;26823;42.662;23.352;2022-10-31T08:39:00;95420.63;;;26.06;30.97
41078;BME280;26823;42.662;23.352;2022-10-31T08:41:26;95426.31;;;25.42;32.52
41078;BME280;26823;42.662;23.352;2022-10-31T08:43:52;95428.47;;;25.84;34.37
41078;BME280;26823;42.662;23.352;2022-10-31T08:46:21;95422.41;;;27.46;30.28
41078;BME280;26823;42.662;23.352;2022-10-31T08:48:49;95421.84;;;27.91;28.88
41078;BME280;26823;42.662;23.352;2022-10-31T08:51:15;95432.72;;;29.05;26.61
41078;BME280;26823;42.662;23.352;2022-10-31T08:53:40;95412.34;;;27.95;28.01
41078;BME280;26823;42.662;23.352;2022-10-31T08:56:09;95419.28;;;28.05;28.09
41078;BME280;26823;42.662;23.352;2022-10-31T08:58:35;95357.72;;;27.46;28.55
41078;BME280;26823;42.662;23.352;2022-10-31T09:01:01;95404.81;;;27.15;29.70
41078;BME280;26823;42.662;23.352;2022-10-31T09:03:29;95414.94;;;27.04;29.46
41078;BME280;26823;42.662;23.352;2022-10-31T09:06:01;95334.31;;;27.20;28.30
41078;BME280;26823;42.662;23.352;2022-10-31T09:08:32;95431.22;;;28.40;26.99
41078;BME280;26823;42.662;23.352;2022-10-31T09:10:58;95389.97;;;27.27;28.92
41078;BME280;26823;42.662;23.352;2022-10-31T09:13:23;95423.34;;;27.08;28.74
41078;BME280;26823;42.662;23.352;2022-10-31T09:15:49;95415.69;;;27.01;29.21
41078;BME280;26823;42.662;23.352;2022-10-31T09:18:17;95371.94;;;28.32;27.37
41078;BME280;26823;42.662;23.352;2022-10-31T09:20:44;95405.03;;;28.10;28.12
41078;BME280;26823;42.662;23.352;2022-10-31T09:23:13;95427.00;;;29.32;26.08
41078;BME280;26823;42.662;23.352;2022-10-31T09:25:40;95427.38;;;30.78;24.54
41078;BME280;26823;42.662;23.352;2022-10-31T09:28:08;95428.63;;;32.00;23.70
41078;BME280;26823;42.662;23.352;2022-10-31T09:30:35;95407.09;;;31.71;22.90
41078;BME280;26823;42.662;23.352;2022-10-31T09:33:03;95419.28;;;30.37;24.35
41078;BME280;26823;42.662;23.352;2022-10-31T09:35:28;95425.41;;;30.79;24.65
41078;BME280;26823;42.662;23.352;2022-10-31T09:37:58;95417.94;;;29.46;27.48
41078;BME280;26823;42.662;23.352;2022-10-31T09:40:32;95406.78;;;28.60;27.01
41078;BME280;26823;42.662;23.352;2022-10-31T09:51:23;95413.53;;;28.25;27.24
41078;BME280;26823;42.662;23.352;2022-10-31T09:54:12;95404.03;;;28.26;28.20
41078;BME280;26823;42.662;23.352;2022-10-31T09:56:39;95402.00;;;28.57;27.20
41078;BME280;26823;42.662;23.352;2022-10-31T09:59:22;95421.19;;;29.07;26.83
41078;BME280;26823;42.662;23.352;2022-10-31T10:09:57;95395.16;;;32.67;22.28
41078;BME280;26823;42.662;23.352;2022-10-31T10:12:47;95388.59;;;32.28;22.19
41078;BME280;26823;42.662;23.352;2022-10-31T10:15:37;95389.09;;;32.83;21.66
41078;BME280;26823;42.662;23.352;2022-10-31T10:26:28;95369.31;;;32.41;22.08
41078;BME280;26823;42.662;23.352;2022-10-31T10:28:58;95376.22;;;32.18;23.20
41078;BME280;26823;42.662;23.352;2022-10-31T10:31:35;95357.22;;;31.41;23.36
41078;BME280;26823;42.662;23.352;2022-10-31T10:36:41;95355.84;;;32.14;22.06
41078;BME280;26823;42.662;23.352;2022-10-31T10:39:15;95354.28;;;32.84;21.47
41078;BME280;26823;42.662;23.352;2022-10-31T10:41:46;95349.59;;;32.63;21.35
41078;BME280;26823;42.662;23.352;2022-10-31T10:44:33;95351.22;;;32.60;20.65
41078;BME280;26823;42.662;23.352;2022-10-31T10:47:19;95334.66;;;32.13;22.20
41078;BME280;26823;42.662;23.352;2022-10-31T10:50:12;95341.94;;;31.89;21.85
41078;BME280;26823;42.662;23.352;2022-10-31T10:53:00;95340.78;;;31.76;21.96
41078;BME280;26823;42.662;23.352;2022-10-31T10:55:54;95357.69;;;33.97;19.67
41078;BME280;26823;42.662;23.352;2022-10-31T10:58:23;95337.81;;;33.42;19.99
41078;BME280;26823;42.662;23.352;2022-10-31T11:00:49;95330.16;;;33.01;20.10
41078;BME280;26823;42.662;23.352;2022-10-31T11:03:17;95343.63;;;32.61;20.70
41078;BME280;26823;42.662;23.352;2022-10-31T11:05:51;95339.59;;;31.77;21.75
41078;BME280;26823;42.662;23.352;2022-10-31T11:08:35;95343.13;;;31.95;21.79
41078;BME280;26823;42.662;23.352;2022-10-31T11:11:03;95340.84;;;31.68;21.91
41078;BME280;26823;42.662;23.352;2022-10-31T11:13:33;95342.00;;;31.56;22.00
41078;BME280;26823;42.662;23.352;2022-10-31T11:18:32;95338.47;;;31.42;21.41
41078;BME280;26823;42.662;23.352;2022-10-31T11:21:00;95326.06;;;31.43;21.78
41078;BME280;26823;42.662;23.352;2022-10-31T11:23:28;95318.09;;;31.55;22.04
41078;BME280;26823;42.662;23.352;2022-10-31T11:26:05;95308.53;;;30.59;22.94
41078;BME280;26823;42.662;23.352;2022-10-31T11:28:32;95306.91;;;30.47;26.06
41078;BME280;26823;42.662;23.352;2022-10-31T11:31:05;95310.81;;;30.17;23.81
41078;BME280;26823;42.662;23.352;2022-10-31T11:33:44;95311.31;;;31.38;22.73
41078;BME280;26823;42.662;23.352;2022-10-31T11:36:25;95306.16;;;30.90;22.44
41078;BME280;26823;42.662;23.352;2022-10-31T11:38:52;95296.09;;;30.20;23.43
41078;BME280;26823;42.662;23.352;2022-10-31T11:41:44;95306.97;;;31.09;22.65
41078;BME280;26823;42.662;23.352;2022-10-31T11:44:26;95296.19;;;29.47;24.40
41078;BME280;26823;42.662;23.352;2022-10-31T11:47:00;95302.00;;;29.93;24.06
41078;BME280;26823;42.662;23.352;2022-10-31T11:51:56;95289.75;;;30.38;26.82
41078;BME280;26823;42.662;23.352;2022-10-31T11:54:32;95271.41;;;30.37;22.94
41078;BME280;26823;42.662;23.352;2022-10-31T11:57:02;95279.03;;;30.65;22.79
41078;BME280;26823;42.662;23.352;2022-10-31T11:59:31;95288.22;;;31.13;25.40
41078;BME280;26823;42.662;23.352;2022-10-31T12:01:59;95278.94;;;30.15;24.09
41078;BME280;26823;42.662;23.352;2022-10-31T12:04:46;95265.69;;;29.09;25.27
41078;BME280;26823;42.662;23.352;2022-10-31T12:07:14;95279.88;;;29.52;25.02
41078;BME280;26823;42.662;23.352;2022-10-31T12:09:40;95281.50;;;29.53;24.83
41078;BME280;26823;42.662;23.352;2022-10-31T12:17:41;95284.22;;;29.42;24.59
41078;BME280;26823;42.662;23.352;2022-10-31T12:23:38;95273.19;;;28.98;25.19
41078;BME280;26823;42.662;23.352;2022-10-31T12:36:33;95270.13;;;28.65;25.54
41078;BME280;26823;42.662;23.352;2022-10-31T12:41:49;95262.00;;;28.45;26.45
41078;BME280;26823;42.662;23.352;2022-10-31T12:47:16;95268.59;;;27.58;27.39
41078;BME280;26823;42.662;23.352;2022-10-31T12:58:26;95254.13;;;26.38;28.77
41078;BME280;26823;42.662;23.352;2022-10-31T13:01:20;95264.88;;;26.66;31.78
41078;BME280;26823;42.662;23.352;2022-10-31T13:04:09;95271.88;;;27.37;27.61
41078;BME280;26823;42.662;23.352;2022-10-31T13:07:05;95258.00;;;26.10;30.55
41078;BME280;26823;42.662;23.352;2022-10-31T13:09:39;95267.28;;;25.79;30.16
41078;BME280;26823;42.662;23.352;2022-10-31T13:12:08;95263.91;;;26.32;29.09
41078;BME280;26823;42.662;23.352;2022-10-31T13:14:41;95253.75;;;27.16;28.69
41078;BME280;26823;42.662;23.352;2022-10-31T13:17:29;95268.41;;;27.17;27.97
41078;BME280;26823;42.662;23.352;2022-10-31T13:22:44;95257.66;;;27.73;26.98
41078;BME280;26823;42.662;23.352;2022-10-31T13:25:15;95266.00;;;27.73;28.89
41078;BME280;26823;42.662;23.352;2022-10-31T13:30:21;95269.03;;;26.53;29.16
41078;BME280;26823;42.662;23.352;2022-10-31T13:33:04;95266.38;;;26.37;28.67
41078;BME280;26823;42.662;23.352;2022-10-31T13:41:01;95263.16;;;27.69;26.54
41078;BME280;26823;42.662;23.352;2022-10-31T13:44:15;95263.75;;;28.64;25.33
41078;BME280;26823;42.662;23.352;2022-10-31T13:46:40;95267.53;;;28.42;25.43
41078;BME280;26823;42.662;23.352;2022-10-31T13:54:40;95262.25;;;27.27;26.89
41078;BME280;26823;42.662;23.352;2022-10-31T13:57:19;95265.28;;;27.79;26.22
41078;BME280;26823;42.662;23.352;2022-10-31T13:59:51;95264.66;;;27.97;25.70
41078;BME280;26823;42.662;23.352;2022-10-31T14:02:25;95271.41;;;28.30;25.22
41078;BME280;26823;42.662;23.352;2022-10-31T14:04:55;95270.34;;;28.45;25.25
41078;BME280;26823;42.662;23.352;2022-10-31T14:07:23;95254.16;;;28.58;25.08
41078;BME280;26823;42.662;23.352;2022-10-31T14:12:31;95268.91;;;26.03;28.62
41078;BME280;26823;42.662;23.352;2022-10-31T14:22:43;95279.00;;;24.81;31.29
41078;BME280;26823;42.662;23.352;2022-10-31T14:25:32;95253.78;;;24.67;30.72
41078;BME280;26823;42.662;23.352;2022-10-31T14:27:59;95265.53;;;24.64;31.14
41078;BME280;26823;42.662;23.352;2022-10-31T14:30:27;95281.22;;;24.59;31.50
41078;BME280;26823;42.662;23.352;2022-10-31T14:32:56;95274.09;;;24.26;32.23
41078;BME280;26823;42.662;23.352;2022-10-31T14:35:27;95271.28;;;23.38;32.97
41078;BME280;26823;42.662;23.352;2022-10-31T14:38:26;95271.75;;;23.68;32.98
41078;BME280;26823;42.662;23.352;2022-10-31T14:52:01;95262.75;;;22.90;35.66
41078;BME280;26823;42.662;23.352;2022-10-31T14:54:33;95273.47;;;22.79;35.40
41078;BME280;26823;42.662;23.352;2022-10-31T14:57:08;95265.31;;;22.58;35.76
41078;BME280;26823;42.662;23.352;2022-10-31T14:59:43;95279.88;;;22.58;36.04
41078;BME280;26823;42.662;23.352;2022-10-31T15:02:13;95278.97;;;22.42;36.88
41078;BME280;26823;42.662;23.352;2022-10-31T15:04:41;95277.19;;;22.25;37.06
41078;BME280;26823;42.662;23.352;2022-10-31T15:07:16;95277.63;;;22.02;37.39
41078;BME280;26823;42.662;23.352;2022-10-31T15:09:42;95274.47;;;21.91;37.28
41078;BME280;26823;42.662;23.352;2022-10-31T15:12:29;95270.81;;;21.87;38.55
41078;BME280;26823;42.662;23.352;2022-10-31T15:14:54;95276.97;;;21.72;38.18